sensor_id;sensor_type;location;lat;lon;timestamp;pressure;altitude;pressure_sealevel;temperature;humidity
42705;BME280;28342;42.594;23.414;2023-01-08T00:01:42;94992.06;;;2.22;81.18
42705;BME280;28342;42.594;23.414;2023-01-08T00:04:42;95003.97;;;2.13;80.03
42705;BME280;28342;42.594;23.414;2023-01-08T00:07:07;94990.88;;;2.13;80.46
42705;BME280;28342;42.594;23.414;2023-01-08T00:09:37;94978.19;;;1.99;81.08
42705;BME280;28342;42.594;23.414;2023-01-08T00:12:08;94980.75;;;2.16;80.91
42705;BME280;28342;42.594;23.414;2023-01-08T00:14:35;94997.59;;;2.25;80.78
42705;BME280;28342;42.594;23.414;2023-01-08T00:17:34;94966.94;;;1.82;82.29
42705;BME280;28342;42.594;23.414;2023-01-08T00:20:27;94981.75;;;1.93;81.88
42705;BME280;28342;42.594;23.414;2023-01-08T00:22:55;94972.75;;;1.84;80.58
42705;BME280;28342;42.594;23.414;2023-01-08T00:25:22;94995.78;;;1.87;80.56
42705;BME280;28342;42.594;23.414;2023-01-08T00:27:52;94980.25;;;1.80;81.28
42705;BME280;28342;42.594;23.414;2023-01-08T00:30:19;94989.13;;;1.79;81.54
42705;BME280;28342;42.594;23.414;2023-01-08T00:33:01;94974.00;;;1.65;81.59
42705;BME280;28342;42.594;23.414;2023-01-08T00:35:28;94996.13;;;1.74;81.01
42705;BME280;28342;42.594;23.414;2023-01-08T00:37:54;94993.41;;;1.86;80.23
42705;BME280;28342;42.594;23.414;2023-01-08T00:40:26;94968.78;;;1.65;81.44
42705;BME280;28342;42.594;23.414;2023-01-08T00:43:18;94985.50;;;1.64;82.82
42705;BME280;28342;42.594;23.414;2023-01-08T00:45:51;94956.38;;;1.38;82.70
42705;BME280;28342;42.594;23.414;2023-01-08T00:48:27;94970.84;;;1.46;83.82
42705;BME280;28342;42.594;23.414;2023-01-08T00:51:13;94984.41;;;1.60;83.89
42705;BME280;28342;42.594;23.414;2023-01-08T00:53:53;94999.13;;;1.66;83.62
42705;BME280;28342;42.594;23.414;2023-01-08T00:56:21;94977.91;;;1.45;83.72
42705;BME280;28342;42.594;23.414;2023-01-08T00:58:47;95000.25;;;1.70;83.45
42705;BME280;28342;42.594;23.414;2023-01-08T01:01:24;94970.28;;;1.61;83.63
42705;BME280;28342;42.594;23.414;2023-01-08T01:03:52;94993.75;;;1.72;83.51
42705;BME280;28342;42.594;23.414;2023-01-08T01:06:28;94974.09;;;1.70;83.23
42705;BME280;28342;42.594;23.414;2023-01-08T01:08:53;94990.88;;;1.74;83.36
42705;BME280;28342;42.594;23.414;2023-01-08T01:11:21;94985.59;;;1.69;82.71
42705;BME280;28342;42.594;23.414;2023-01-08T01:13:50;94977.28;;;1.72;82.08
42705;BME280;28342;42.594;23.414;2023-01-08T01:16:16;94965.69;;;1.68;82.01
42705;BME280;28342;42.594;23.414;2023-01-08T01:18:42;94975.03;;;1.64;82.98
42705;BME280;28342;42.594;23.414;2023-01-08T01:21:30;94995.06;;;1.92;82.54
42705;BME280;28342;42.594;23.414;2023-01-08T01:24:04;94962.84;;;1.69;82.42
42705;BME280;28342;42.594;23.414;2023-01-08T01:26:32;94970.22;;;1.72;82.46
42705;BME280;28342;42.594;23.414;2023-01-08T01:29:00;94969.97;;;1.74;81.95
42705;BME280;28342;42.594;23.414;2023-01-08T01:31:30;94985.34;;;1.87;80.59
42705;BME280;28342;42.594;23.414;2023-01-08T01:34:00;94988.66;;;1.83;80.85
42705;BME280;28342;42.594;23.414;2023-01-08T01:36:36;94984.41;;;1.60;82.86
42705;BME280;28342;42.594;23.414;2023-01-08T01:39:16;94977.75;;;1.69;81.76
42705;BME280;28342;42.594;23.414;2023-01-08T01:41:48;94976.78;;;1.75;81.47
42705;BME280;28342;42.594;23.414;2023-01-08T01:44:36;94968.28;;;1.68;80.67
42705;BME280;28342;42.594;23.414;2023-01-08T01:47:35;94977.81;;;1.74;78.95
42705;BME280;28342;42.594;23.414;2023-01-08T01:50:26;94978.22;;;1.66;78.97
42705;BME280;28342;42.594;23.414;2023-01-08T01:53:20;94972.75;;;1.50;79.40
42705;BME280;28342;42.594;23.414;2023-01-08T01:55:53;94968.25;;;1.46;79.31
42705;BME280;28342;42.594;23.414;2023-01-08T01:58:27;94984.34;;;1.55;79.02
42705;BME280;28342;42.594;23.414;2023-01-08T02:00:57;94977.44;;;1.48;79.42
42705;BME280;28342;42.594;23.414;2023-01-08T02:03:31;94973.16;;;1.42;79.62
42705;BME280;28342;42.594;23.414;2023-01-08T02:12:00;94963.88;;;1.18;80.34
42705;BME280;28342;42.594;23.414;2023-01-08T02:15:17;94939.53;;;0.84;80.44
42705;BME280;28342;42.594;23.414;2023-01-08T02:20:36;94936.06;;;0.78;80.92
42705;BME280;28342;42.594;23.414;2023-01-08T02:23:33;94962.34;;;0.88;81.01
42705;BME280;28342;42.594;23.414;2023-01-08T02:26:11;94929.25;;;0.77;80.45
42705;BME280;28342;42.594;23.414;2023-01-08T02:28:59;94950.50;;;0.98;80.62
42705;BME280;28342;42.594;23.414;2023-01-08T02:31:28;94955.72;;;0.98;81.35
42705;BME280;28342;42.594;23.414;2023-01-08T02:34:02;94931.00;;;0.88;81.27
42705;BME280;28342;42.594;23.414;2023-01-08T02:36:42;94930.22;;;0.88;82.40
42705;BME280;28342;42.594;23.414;2023-01-08T02:43:22;94955.06;;;0.90;84.48
42705;BME280;28342;42.594;23.414;2023-01-08T02:45:45;94949.28;;;0.88;83.69
42705;BME280;28342;42.594;23.414;2023-01-08T02:51:49;94933.00;;;0.98;83.20
42705;BME280;28342;42.594;23.414;2023-01-08T02:54:27;94920.78;;;0.87;83.27
42705;BME280;28342;42.594;23.414;2023-01-08T02:57:05;94911.44;;;0.74;84.08
42705;BME280;28342;42.594;23.414;2023-01-08T02:59:44;94933.06;;;0.86;84.05
42705;BME280;28342;42.594;23.414;2023-01-08T03:02:22;94910.06;;;0.55;85.06
42705;BME280;28342;42.594;23.414;2023-01-08T03:04:57;94934.81;;;0.81;84.66
42705;BME280;28342;42.594;23.414;2023-01-08T03:07:25;94945.00;;;0.82;84.36
42705;BME280;28342;42.594;23.414;2023-01-08T03:10:13;94921.31;;;0.72;83.34
42705;BME280;28342;42.594;23.414;2023-01-08T03:13:15;94955.53;;;0.87;82.51
42705;BME280;28342;42.594;23.414;2023-01-08T03:15:57;94946.66;;;0.88;81.17
42705;BME280;28342;42.594;23.414;2023-01-08T03:18:34;94930.38;;;0.81;81.41
42705;BME280;28342;42.594;23.414;2023-01-08T03:21:11;94935.28;;;0.78;81.02
42705;BME280;28342;42.594;23.414;2023-01-08T03:23:39;94957.13;;;0.88;81.05
42705;BME280;28342;42.594;23.414;2023-01-08T03:26:12;94950.72;;;0.79;81.05
42705;BME280;28342;42.594;23.414;2023-01-08T03:28:48;94946.16;;;0.75;80.95
42705;BME280;28342;42.594;23.414;2023-01-08T03:31:40;94940.44;;;0.61;81.96
42705;BME280;28342;42.594;23.414;2023-01-08T03:34:16;94957.97;;;0.77;81.56
42705;BME280;28342;42.594;23.414;2023-01-08T03:37:03;94952.19;;;0.75;81.21
42705;BME280;28342;42.594;23.414;2023-01-08T03:40:04;94950.72;;;0.79;81.44
42705;BME280;28342;42.594;23.414;2023-01-08T03:42:40;94953.03;;;0.64;81.79
42705;BME280;28342;42.594;23.414;2023-01-08T03:45:20;94944.25;;;0.70;81.57
42705;BME280;28342;42.594;23.414;2023-01-08T03:47:53;94934.38;;;0.44;83.90
42705;BME280;28342;42.594;23.414;2023-01-08T03:50:28;94941.84;;;0.52;83.69
42705;BME280;28342;42.594;23.414;2023-01-08T03:52:58;94911.44;;;0.46;83.16
42705;BME280;28342;42.594;23.414;2023-01-08T03:55:27;94944.53;;;0.57;82.53
42705;BME280;28342;42.594;23.414;2023-01-08T03:58:13;94950.31;;;0.59;82.20
42705;BME280;28342;42.594;23.414;2023-01-08T04:01:00;94942.97;;;0.56;81.85
42705;BME280;28342;42.594;23.414;2023-01-08T04:03:46;94945.25;;;0.52;81.94
42705;BME280;28342;42.594;23.414;2023-01-08T04:06:47;94938.22;;;0.53;82.14
42705;BME280;28342;42.594;23.414;2023-01-08T04:09:25;94940.41;;;0.44;82.32
42705;BME280;28342;42.594;23.414;2023-01-08T04:11:53;94927.59;;;0.43;81.98
42705;BME280;28342;42.594;23.414;2023-01-08T04:14:41;94926.47;;;0.39;83.03
42705;BME280;28342;42.594;23.414;2023-01-08T04:17:14;94952.94;;;0.59;82.67
42705;BME280;28342;42.594;23.414;2023-01-08T04:19:43;94941.06;;;0.51;82.48
42705;BME280;28342;42.594;23.414;2023-01-08T04:22:15;94935.31;;;0.38;83.12
42705;BME280;28342;42.594;23.414;2023-01-08T04:25:12;94940.06;;;0.41;84.59
42705;BME280;28342;42.594;23.414;2023-01-08T04:27:42;94941.28;;;0.50;83.01
42705;BME280;28342;42.594;23.414;2023-01-08T04:30:19;94954.34;;;0.50;82.51
42705;BME280;28342;42.594;23.414;2023-01-08T04:33:15;94958.63;;;0.56;82.14
42705;BME280;28342;42.594;23.414;2023-01-08T04:36:03;94948.66;;;0.53;81.73
42705;BME280;28342;42.594;23.414;2023-01-08T04:38:34;94954.81;;;0.47;81.18
42705;BME280;28342;42.594;23.414;2023-01-08T04:41:08;94937.13;;;0.37;81.25
42705;BME280;28342;42.594;23.414;2023-01-08T04:44:04;94926.09;;;0.18;81.33
42705;BME280;28342;42.594;23.414;2023-01-08T04:46:40;94952.09;;;0.42;81.17
42705;BME280;28342;42.594;23.414;2023-01-08T04:49:10;94920.16;;;0.23;81.23
42705;BME280;28342;42.594;23.414;2023-01-08T04:51:43;94956.84;;;0.45;80.66
42705;BME280;28342;42.594;23.414;2023-01-08T04:54:18;94920.88;;;0.18;81.36
42705;BME280;28342;42.594;23.414;2023-01-08T04:57:36;94949.50;;;0.30;83.07
42705;BME280;28342;42.594;23.414;2023-01-08T05:00:27;94919.56;;;0.04;83.11
42705;BME280;28342;42.594;23.414;2023-01-08T05:03:03;94926.81;;;0.02;83.38
42705;BME280;28342;42.594;23.414;2023-01-08T05:06:19;94949.66;;;0.23;83.36
42705;BME280;28342;42.594;23.414;2023-01-08T05:09:14;94956.34;;;0.31;83.18
42705;BME280;28342;42.594;23.414;2023-01-08T05:11:49;94912.88;;;-0.04;83.71
42705;BME280;28342;42.594;23.414;2023-01-08T05:14:40;94953.28;;;0.22;84.47
42705;BME280;28342;42.594;23.414;2023-01-08T05:17:21;94911.59;;;-0.01;83.98
42705;BME280;28342;42.594;23.414;2023-01-08T05:20:00;94919.00;;;0.02;83.73
42705;BME280;28342;42.594;23.414;2023-01-08T05:22:51;94963.72;;;0.22;82.95
42705;BME280;28342;42.594;23.414;2023-01-08T05:25:20;94938.69;;;0.10;82.04
42705;BME280;28342;42.594;23.414;2023-01-08T05:28:53;94911.88;;;-0.14;81.57
42705;BME280;28342;42.594;23.414;2023-01-08T05:31:41;94921.16;;;-0.07;81.93
42705;BME280;28342;42.594;23.414;2023-01-08T05:34:21;94954.09;;;0.11;82.80
42705;BME280;28342;42.594;23.414;2023-01-08T05:37:44;94951.50;;;0.11;82.06
42705;BME280;28342;42.594;23.414;2023-01-08T05:40:43;94931.91;;;-0.03;82.52
42705;BME280;28342;42.594;23.414;2023-01-08T05:43:44;94932.47;;;-0.01;83.31
42705;BME280;28342;42.594;23.414;2023-01-08T05:47:06;94925.34;;;-0.06;82.75
42705;BME280;28342;42.594;23.414;2023-01-08T05:50:28;94936.47;;;-0.10;82.84
42705;BME280;28342;42.594;23.414;2023-01-08T05:54:15;94945.63;;;0.04;81.92
42705;BME280;28342;42.594;23.414;2023-01-08T05:57:34;94958.31;;;0.12;81.68
42705;BME280;28342;42.594;23.414;2023-01-08T06:00:33;94958.56;;;-0.01;82.45
42705;BME280;28342;42.594;23.414;2023-01-08T06:03:46;94963.75;;;-0.01;82.43
42705;BME280;28342;42.594;23.414;2023-01-08T06:06:19;94944.28;;;-0.10;83.23
42705;BME280;28342;42.594;23.414;2023-01-08T06:09:25;94936.25;;;-0.09;82.71
42705;BME280;28342;42.594;23.414;2023-01-08T06:12:32;94961.06;;;-0.06;84.29
42705;BME280;28342;42.594;23.414;2023-01-08T06:15:08;94945.88;;;-0.09;84.50
42705;BME280;28342;42.594;23.414;2023-01-08T06:18:00;94930.34;;;-0.16;84.19
42705;BME280;28342;42.594;23.414;2023-01-08T06:20:38;94962.06;;;0.05;83.78
42705;BME280;28342;42.594;23.414;2023-01-08T06:23:08;94937.03;;;-0.08;83.59
42705;BME280;28342;42.594;23.414;2023-01-08T06:25:59;94967.84;;;0.18;83.14
42705;BME280;28342;42.594;23.414;2023-01-08T06:28:26;94969.66;;;0.06;82.97
42705;BME280;28342;42.594;23.414;2023-01-08T06:30:59;94952.53;;;-0.02;82.35
42705;BME280;28342;42.594;23.414;2023-01-08T06:33:29;94970.59;;;0.00;82.64
42705;BME280;28342;42.594;23.414;2023-01-08T06:36:06;94947.94;;;-0.11;82.63
42705;BME280;28342;42.594;23.414;2023-01-08T06:38:48;94961.38;;;-0.03;83.92
42705;BME280;28342;42.594;23.414;2023-01-08T06:41:17;94950.78;;;-0.13;83.94
42705;BME280;28342;42.594;23.414;2023-01-08T06:44:09;94969.44;;;-0.04;83.82
42705;BME280;28342;42.594;23.414;2023-01-08T06:46:45;94983.81;;;0.10;84.00
42705;BME280;28342;42.594;23.414;2023-01-08T06:49:15;94979.16;;;0.12;83.97
42705;BME280;28342;42.594;23.414;2023-01-08T06:52:00;94984.53;;;0.06;83.94
42705;BME280;28342;42.594;23.414;2023-01-08T06:54:29;94963.09;;;-0.08;83.83
42705;BME280;28342;42.594;23.414;2023-01-08T06:56:56;94990.63;;;-0.01;84.21
42705;BME280;28342;42.594;23.414;2023-01-08T07:00:08;94979.31;;;0.06;83.65
42705;BME280;28342;42.594;23.414;2023-01-08T07:02:34;94971.50;;;-0.06;84.74
42705;BME280;28342;42.594;23.414;2023-01-08T07:05:04;94956.19;;;-0.03;84.23
42705;BME280;28342;42.594;23.414;2023-01-08T07:07:31;94978.50;;;0.17;85.06
42705;BME280;28342;42.594;23.414;2023-01-08T07:10:02;94993.47;;;-0.02;86.90
42705;BME280;28342;42.594;23.414;2023-01-08T07:12:36;94994.72;;;0.07;86.91
42705;BME280;28342;42.594;23.414;2023-01-08T07:15:23;94994.81;;;0.12;86.85
42705;BME280;28342;42.594;23.414;2023-01-08T07:18:02;94997.88;;;0.21;86.14
42705;BME280;28342;42.594;23.414;2023-01-08T07:21:24;94970.69;;;0.05;87.07
42705;BME280;28342;42.594;23.414;2023-01-08T07:24:06;94982.22;;;0.21;86.76
42705;BME280;28342;42.594;23.414;2023-01-08T07:27:28;94970.28;;;0.37;86.19
42705;BME280;28342;42.594;23.414;2023-01-08T07:30:25;94986.56;;;0.44;85.98
42705;BME280;28342;42.594;23.414;2023-01-08T07:33:03;95002.66;;;0.64;85.74
42705;BME280;28342;42.594;23.414;2023-01-08T07:35:54;94983.94;;;0.55;86.03
42705;BME280;28342;42.594;23.414;2023-01-08T07:39:01;95000.13;;;0.69;85.75
42705;BME280;28342;42.594;23.414;2023-01-08T07:41:52;94969.75;;;0.63;85.75
42705;BME280;28342;42.594;23.414;2023-01-08T07:44:27;95000.13;;;0.69;85.64
42705;BME280;28342;42.594;23.414;2023-01-08T07:50:59;94988.47;;;0.88;85.25
42705;BME280;28342;42.594;23.414;2023-01-08T08:01:11;94969.59;;;1.15;82.98
42705;BME280;28342;42.594;23.414;2023-01-08T08:07:44;94982.63;;;1.82;82.24
42705;BME280;28342;42.594;23.414;2023-01-08T08:11:42;95000.06;;;2.32;81.01
42705;BME280;28342;42.594;23.414;2023-01-08T08:15:17;94981.25;;;2.35;79.34
42705;BME280;28342;42.594;23.414;2023-01-08T08:18:45;95004.38;;;2.65;78.47
42705;BME280;28342;42.594;23.414;2023-01-08T08:22:20;94972.03;;;2.76;78.66
42705;BME280;28342;42.594;23.414;2023-01-08T08:24:56;94994.56;;;3.04;76.93
42705;BME280;28342;42.594;23.414;2023-01-08T08:28:05;94996.25;;;3.15;76.13
42705;BME280;28342;42.594;23.414;2023-01-08T08:33:48;94999.75;;;3.58;75.86
42705;BME280;28342;42.594;23.414;2023-01-08T08:36:50;94973.16;;;3.81;74.51
42705;BME280;28342;42.594;23.414;2023-01-08T08:39:43;94977.13;;;3.84;73.07
42705;BME280;28342;42.594;23.414;2023-01-08T08:43:29;94991.78;;;4.27;70.81
42705;BME280;28342;42.594;23.414;2023-01-08T08:47:06;94971.88;;;4.36;72.80
42705;BME280;28342;42.594;23.414;2023-01-08T08:54:39;95001.75;;;4.88;70.14
42705;BME280;28342;42.594;23.414;2023-01-08T08:58:08;95005.81;;;5.21;69.73
42705;BME280;28342;42.594;23.414;2023-01-08T09:01:51;94967.91;;;5.17;68.96
42705;BME280;28342;42.594;23.414;2023-01-08T09:04:51;94977.91;;;5.20;68.26
42705;BME280;28342;42.594;23.414;2023-01-08T09:07:41;94969.50;;;5.48;68.40
42705;BME280;28342;42.594;23.414;2023-01-08T09:14:44;94959.72;;;6.15;67.26
42705;BME280;28342;42.594;23.414;2023-01-08T09:17:50;94997.75;;;6.68;66.61
42705;BME280;28342;42.594;23.414;2023-01-08T09:20:54;94992.06;;;7.05;67.33
42705;BME280;28342;42.594;23.414;2023-01-08T09:23:46;94990.03;;;7.31;67.34
42705;BME280;28342;42.594;23.414;2023-01-08T09:26:14;94979.47;;;7.36;66.99
42705;BME280;28342;42.594;23.414;2023-01-08T09:28:40;94977.84;;;7.40;66.37
42705;BME280;28342;42.594;23.414;2023-01-08T09:31:05;94977.72;;;7.56;65.91
42705;BME280;28342;42.594;23.414;2023-01-08T09:33:31;94969.41;;;7.72;65.13
42705;BME280;28342;42.594;23.414;2023-01-08T09:35:57;94970.91;;;7.84;65.47
42705;BME280;28342;42.594;23.414;2023-01-08T09:38:22;94971.06;;;7.92;65.50
42705;BME280;28342;42.594;23.414;2023-01-08T09:41:29;94952.41;;;7.84;65.76
42705;BME280;28342;42.594;23.414;2023-01-08T09:43:49;94937.09;;;7.80;64.50
42705;BME280;28342;42.594;23.414;2023-01-08T09:46:18;94945.34;;;8.03;64.47
42705;BME280;28342;42.594;23.414;2023-01-08T09:48:46;94937.03;;;8.15;63.50
42705;BME280;28342;42.594;23.414;2023-01-08T09:51:13;94929.44;;;8.08;63.00
42705;BME280;28342;42.594;23.414;2023-01-08T09:53:40;94950.13;;;8.25;62.92
42705;BME280;28342;42.594;23.414;2023-01-08T09:56:12;94935.84;;;8.26;62.62
42705;BME280;28342;42.594;23.414;2023-01-08T10:01:15;94925.75;;;8.33;62.86
42705;BME280;28342;42.594;23.414;2023-01-08T10:04:04;94933.59;;;8.43;61.89
42705;BME280;28342;42.594;23.414;2023-01-08T10:06:32;94900.06;;;8.38;61.74
42705;BME280;28342;42.594;23.414;2023-01-08T10:08:58;94919.66;;;8.56;61.43
42705;BME280;28342;42.594;23.414;2023-01-08T10:11:25;94915.81;;;8.49;62.43
42705;BME280;28342;42.594;23.414;2023-01-08T10:13:55;94912.94;;;8.45;62.25
42705;BME280;28342;42.594;23.414;2023-01-08T10:16:30;94900.84;;;8.39;62.53
42705;BME280;28342;42.594;23.414;2023-01-08T10:18:58;94905.00;;;8.45;61.81
42705;BME280;28342;42.594;23.414;2023-01-08T10:21:35;94886.63;;;8.35;61.96
42705;BME280;28342;42.594;23.414;2023-01-08T10:24:01;94892.63;;;8.41;62.15
42705;BME280;28342;42.594;23.414;2023-01-08T10:26:31;94887.13;;;8.37;62.45
42705;BME280;28342;42.594;23.414;2023-01-08T10:29:18;94898.59;;;8.51;62.29
42705;BME280;28342;42.594;23.414;2023-01-08T10:31:51;94887.88;;;8.43;62.67
42705;BME280;28342;42.594;23.414;2023-01-08T10:34:24;94884.41;;;8.42;63.09
42705;BME280;28342;42.594;23.414;2023-01-08T10:36:51;94882.78;;;8.46;63.17
42705;BME280;28342;42.594;23.414;2023-01-08T10:39:24;94871.19;;;8.42;62.84
42705;BME280;28342;42.594;23.414;2023-01-08T10:41:52;94872.66;;;8.29;62.60
42705;BME280;28342;42.594;23.414;2023-01-08T10:44:20;94867.59;;;8.33;62.86
42705;BME280;28342;42.594;23.414;2023-01-08T10:46:49;94848.59;;;8.31;62.21
42705;BME280;28342;42.594;23.414;2023-01-08T10:49:25;94872.78;;;8.43;62.49
42705;BME280;28342;42.594;23.414;2023-01-08T10:51:52;94847.94;;;8.44;62.42
42705;BME280;28342;42.594;23.414;2023-01-08T10:54:39;94861.19;;;8.39;62.11
42705;BME280;28342;42.594;23.414;2023-01-08T10:57:28;94836.06;;;8.18;62.25
42705;BME280;28342;42.594;23.414;2023-01-08T10:59:55;94825.56;;;8.13;62.42
42705;BME280;28342;42.594;23.414;2023-01-08T11:02:33;94839.13;;;8.25;62.92
42705;BME280;28342;42.594;23.414;2023-01-08T11:05:00;94837.72;;;8.14;62.33
42705;BME280;28342;42.594;23.414;2023-01-08T11:07:27;94837.06;;;8.22;62.20
42705;BME280;28342;42.594;23.414;2023-01-08T11:09:53;94843.00;;;8.14;62.85
42705;BME280;28342;42.594;23.414;2023-01-08T11:14:58;94835.56;;;8.16;62.92
42705;BME280;28342;42.594;23.414;2023-01-08T11:17:24;94820.72;;;8.20;63.04
42705;BME280;28342;42.594;23.414;2023-01-08T11:19:51;94818.47;;;8.08;63.78
42705;BME280;28342;42.594;23.414;2023-01-08T11:22:17;94827.00;;;8.24;63.17
42705;BME280;28342;42.594;23.414;2023-01-08T11:24:43;94832.78;;;8.26;63.24
42705;BME280;28342;42.594;23.414;2023-01-08T11:27:29;94834.44;;;8.22;63.48
42705;BME280;28342;42.594;23.414;2023-01-08T11:33:11;94822.75;;;8.28;62.74
42705;BME280;28342;42.594;23.414;2023-01-08T11:35:40;94821.72;;;8.24;62.63
42705;BME280;28342;42.594;23.414;2023-01-08T11:38:11;94819.72;;;8.16;62.94
42705;BME280;28342;42.594;23.414;2023-01-08T11:40:54;94825.31;;;8.33;62.47
42705;BME280;28342;42.594;23.414;2023-01-08T12:02:53;94789.25;;;8.80;60.74
42705;BME280;28342;42.594;23.414;2023-01-08T12:11:18;94792.63;;;8.99;60.38
42705;BME280;28342;42.594;23.414;2023-01-08T12:14:18;94796.25;;;9.03;60.30
42705;BME280;28342;42.594;23.414;2023-01-08T12:17:16;94788.31;;;9.03;60.22
42705;BME280;28342;42.594;23.414;2023-01-08T12:19:56;94781.69;;;9.06;59.56
42705;BME280;28342;42.594;23.414;2023-01-08T12:30:56;94774.34;;;9.16;59.59
42705;BME280;28342;42.594;23.414;2023-01-08T12:33:53;94775.91;;;9.17;59.74
42705;BME280;28342;42.594;23.414;2023-01-08T12:36:29;94770.63;;;9.17;59.55
42705;BME280;28342;42.594;23.414;2023-01-08T12:39:03;94770.06;;;9.20;59.60
42705;BME280;28342;42.594;23.414;2023-01-08T12:41:33;94759.47;;;9.20;59.63
42705;BME280;28342;42.594;23.414;2023-01-08T12:44:04;94755.75;;;9.21;59.87
42705;BME280;28342;42.594;23.414;2023-01-08T12:46:34;94757.91;;;9.33;59.54
42705;BME280;28342;42.594;23.414;2023-01-08T12:49:01;94761.25;;;9.39;59.11
42705;BME280;28342;42.594;23.414;2023-01-08T12:54:37;94756.94;;;9.43;59.61
42705;BME280;28342;42.594;23.414;2023-01-08T13:03:03;94743.59;;;9.48;58.59
42705;BME280;28342;42.594;23.414;2023-01-08T13:05:35;94753.03;;;9.54;58.86
42705;BME280;28342;42.594;23.414;2023-01-08T13:08:26;94747.16;;;9.57;59.00
42705;BME280;28342;42.594;23.414;2023-01-08T13:10:54;94734.78;;;9.52;59.36
42705;BME280;28342;42.594;23.414;2023-01-08T13:13:33;94725.59;;;9.50;59.34
42705;BME280;28342;42.594;23.414;2023-01-08T13:16:17;94744.88;;;9.64;59.07
42705;BME280;28342;42.594;23.414;2023-01-08T13:19:00;94730.59;;;9.65;59.56
42705;BME280;28342;42.594;23.414;2023-01-08T13:21:31;94732.22;;;9.61;59.21
42705;BME280;28342;42.594;23.414;2023-01-08T13:24:03;94719.09;;;9.56;59.12
42705;BME280;28342;42.594;23.414;2023-01-08T13:26:31;94729.38;;;9.57;59.56
42705;BME280;28342;42.594;23.414;2023-01-08T13:29:24;94739.31;;;9.66;59.29
42705;BME280;28342;42.594;23.414;2023-01-08T13:31:50;94723.41;;;9.52;59.23
42705;BME280;28342;42.594;23.414;2023-01-08T13:34:18;94732.81;;;9.58;59.27
42705;BME280;28342;42.594;23.414;2023-01-08T13:36:54;94733.41;;;9.55;59.63
42705;BME280;28342;42.594;23.414;2023-01-08T13:39:22;94726.75;;;9.44;59.94
42705;BME280;28342;42.594;23.414;2023-01-08T13:44:38;94713.19;;;9.32;60.37
42705;BME280;28342;42.594;23.414;2023-01-08T13:47:18;94731.66;;;9.37;60.49
42705;BME280;28342;42.594;23.414;2023-01-08T13:49:48;94732.50;;;9.32;60.83
42705;BME280;28342;42.594;23.414;2023-01-08T13:55:13;94733.97;;;9.11;61.86
42705;BME280;28342;42.594;23.414;2023-01-08T13:57:45;94736.47;;;9.02;62.62
42705;BME280;28342;42.594;23.414;2023-01-08T14:00:18;94738.25;;;8.93;62.75
42705;BME280;28342;42.594;23.414;2023-01-08T14:02:46;94732.13;;;8.79;63.36
42705;BME280;28342;42.594;23.414;2023-01-08T14:07:51;94730.84;;;8.57;64.01
42705;BME280;28342;42.594;23.414;2023-01-08T14:10:17;94736.31;;;8.47;64.23
42705;BME280;28342;42.594;23.414;2023-01-08T14:12:43;94742.53;;;8.37;64.62
42705;BME280;28342;42.594;23.414;2023-01-08T14:15:22;94725.66;;;8.15;65.00
42705;BME280;28342;42.594;23.414;2023-01-08T14:17:49;94742.16;;;8.25;64.82
42705;BME280;28342;42.594;23.414;2023-01-08T14:20:30;94740.44;;;8.16;65.09
42705;BME280;28342;42.594;23.414;2023-01-08T14:22:57;94731.56;;;8.06;65.21
42705;BME280;28342;42.594;23.414;2023-01-08T14:25:23;94740.19;;;7.93;65.31
42705;BME280;28342;42.594;23.414;2023-01-08T14:27:58;94715.56;;;7.79;65.47
42705;BME280;28342;42.594;23.414;2023-01-08T14:30:24;94736.34;;;7.86;65.72
42705;BME280;28342;42.594;23.414;2023-01-08T14:32:50;94732.16;;;7.61;66.35
42705;BME280;28342;42.594;23.414;2023-01-08T14:35:18;94731.66;;;7.59;66.43
42705;BME280;28342;42.594;23.414;2023-01-08T14:37:45;94738.56;;;7.55;66.27
42705;BME280;28342;42.594;23.414;2023-01-08T14:40:15;94730.88;;;7.34;66.96
42705;BME280;28342;42.594;23.414;2023-01-08T14:42:43;94727.56;;;7.24;67.48
42705;BME280;28342;42.594;23.414;2023-01-08T14:47:48;94721.88;;;7.11;67.91
42705;BME280;28342;42.594;23.414;2023-01-08T14:50:27;94718.78;;;7.04;68.04
42705;BME280;28342;42.594;23.414;2023-01-08T14:53:04;94717.25;;;6.98;68.22
42705;BME280;28342;42.594;23.414;2023-01-08T14:55:31;94717.69;;;6.81;68.51
42705;BME280;28342;42.594;23.414;2023-01-08T14:58:00;94715.09;;;6.76;68.78
42705;BME280;28342;42.594;23.414;2023-01-08T15:00:28;94725.09;;;6.79;68.20
42705;BME280;28342;42.594;23.414;2023-01-08T15:02:54;94716.13;;;6.80;67.77
42705;BME280;28342;42.594;23.414;2023-01-08T15:08:18;94701.66;;;6.44;68.75
42705;BME280;28342;42.594;23.414;2023-01-08T15:10:56;94722.63;;;6.59;69.21
42705;BME280;28342;42.594;23.414;2023-01-08T15:13:23;94707.97;;;6.43;69.23
42705;BME280;28342;42.594;23.414;2023-01-08T15:16:04;94719.50;;;6.52;68.41
42705;BME280;28342;42.594;23.414;2023-01-08T15:18:32;94719.50;;;6.52;68.29
42705;BME280;28342;42.594;23.414;2023-01-08T15:20:58;94716.22;;;6.36;68.23
42705;BME280;28342;42.594;23.414;2023-01-08T15:23:27;94703.38;;;6.24;68.17
42705;BME280;28342;42.594;23.414;2023-01-08T15:25:54;94697.66;;;6.17;68.49
42705;BME280;28342;42.594;23.414;2023-01-08T15:28:20;94707.50;;;5.96;68.81
42705;BME280;28342;42.594;23.414;2023-01-08T15:30:47;94723.63;;;5.90;69.94
42705;BME280;28342;42.594;23.414;2023-01-08T15:33:19;94719.50;;;5.63;70.22
42705;BME280;28342;42.594;23.414;2023-01-08T15:35:45;94699.03;;;5.50;70.55
42705;BME280;28342;42.594;23.414;2023-01-08T15:38:12;94703.19;;;5.61;69.96
42705;BME280;28342;42.594;23.414;2023-01-08T15:40:37;94713.09;;;5.80;69.81
42705;BME280;28342;42.594;23.414;2023-01-08T15:43:02;94720.94;;;5.95;69.51
42705;BME280;28342;42.594;23.414;2023-01-08T15:45:34;94722.50;;;5.96;69.37
42705;BME280;28342;42.594;23.414;2023-01-08T15:47:59;94726.50;;;5.88;69.15
42705;BME280;28342;42.594;23.414;2023-01-08T15:50:26;94704.41;;;5.84;69.33
42705;BME280;28342;42.594;23.414;2023-01-08T15:52:52;94729.97;;;5.74;70.24
42705;BME280;28342;42.594;23.414;2023-01-08T15:55:20;94711.59;;;5.63;70.11